createdAt,value
2019-06-20T00:02:19.764Z,1.63
2019-06-20T00:04:49.338Z,1.30
2019-06-20T00:07:18.982Z,1.60
2019-06-20T00:09:48.558Z,1.53
2019-06-20T00:12:18.111Z,1.70
2019-06-20T00:14:47.687Z,1.50
2019-06-20T00:17:17.339Z,1.67
2019-06-20T00:19:47.019Z,1.67
2019-06-20T00:22:16.597Z,1.53
2019-06-20T00:24:46.181Z,1.80
2019-06-20T00:27:15.752Z,1.87
2019-06-20T00:29:45.389Z,2.10
2019-06-20T00:32:14.961Z,2.17
2019-06-20T00:34:44.549Z,1.60
2019-06-20T00:37:14.062Z,1.90
2019-06-20T00:39:43.636Z,1.53
2019-06-20T00:42:13.188Z,1.80
2019-06-20T00:44:42.800Z,2.00
2019-06-20T00:47:12.374Z,1.83
2019-06-20T00:49:42.066Z,2.00
2019-06-20T00:52:11.642Z,2.03
2019-06-20T00:54:41.225Z,1.70
2019-06-20T00:57:10.776Z,1.50
2019-06-20T00:59:40.331Z,1.47
2019-06-20T01:02:10.197Z,1.70
2019-06-20T01:04:41.135Z,1.77
2019-06-20T01:10:41.666Z,1.50
2019-06-20T01:13:33.660Z,1.80
2019-06-20T01:16:20.442Z,1.60
2019-06-20T01:18:52.088Z,1.80
2019-06-20T01:21:21.743Z,1.77
2019-06-20T01:23:51.497Z,1.53
2019-06-20T01:26:21.119Z,1.30
2019-06-20T01:28:50.711Z,1.73
2019-06-20T01:31:20.249Z,1.67
2019-06-20T01:33:49.874Z,1.57
2019-06-20T01:36:19.478Z,1.43
2019-06-20T01:38:49.661Z,1.33
2019-06-20T01:41:19.387Z,1.57
2019-06-20T01:43:51.007Z,1.83
2019-06-20T01:46:20.693Z,1.90
2019-06-20T01:48:50.286Z,1.63
2019-06-20T01:51:19.857Z,1.63
2019-06-20T01:53:49.448Z,1.83
2019-06-20T01:56:19.034Z,2.10
2019-06-20T01:58:48.580Z,1.70
2019-06-20T02:01:18.249Z,1.80
2019-06-20T02:03:47.843Z,2.07
2019-06-20T02:06:17.556Z,2.13
2019-06-20T02:08:47.149Z,1.70
2019-06-20T02:11:16.725Z,2.03
2019-06-20T02:13:46.280Z,2.10
2019-06-20T02:16:16.042Z,2.10
2019-06-20T02:18:45.665Z,2.03
2019-06-20T02:21:15.229Z,2.00
2019-06-20T02:23:44.865Z,2.20
2019-06-20T02:26:14.476Z,2.20
2019-06-20T02:28:44.045Z,2.27
2019-06-20T02:31:13.624Z,2.03
2019-06-20T02:33:43.261Z,2.23
2019-06-20T02:36:12.848Z,2.17
2019-06-20T02:38:42.402Z,2.23
2019-06-20T02:41:12.029Z,2.50
2019-06-20T02:43:42.678Z,2.50
2019-06-20T02:46:12.408Z,2.70
2019-06-20T02:48:41.968Z,2.37
2019-06-20T02:51:11.617Z,2.80
2019-06-20T02:53:41.321Z,2.23
2019-06-20T02:56:10.928Z,2.27
2019-06-20T02:58:40.576Z,2.00
2019-06-20T03:01:10.120Z,1.93
2019-06-20T03:03:39.698Z,2.83
2019-06-20T03:06:09.228Z,2.87
2019-06-20T03:08:38.822Z,2.30
2019-06-20T03:11:08.390Z,2.23
2019-06-20T03:13:38.041Z,2.80
2019-06-20T03:16:07.632Z,2.67
2019-06-20T03:18:37.204Z,2.60
2019-06-20T03:21:06.820Z,2.53
2019-06-20T03:23:36.387Z,2.70
2019-06-20T03:26:06.033Z,3.07
2019-06-20T03:28:35.652Z,3.20
2019-06-20T03:31:05.258Z,3.67
2019-06-20T03:33:34.909Z,7.40
2019-06-20T03:36:04.601Z,5.93
2019-06-20T03:38:34.151Z,5.83
2019-06-20T03:41:03.771Z,6.03
2019-06-20T03:43:33.402Z,4.37
2019-06-20T03:46:03.165Z,3.90
2019-06-20T03:48:32.778Z,3.57
2019-06-20T03:51:02.401Z,3.13
2019-06-20T03:53:32.040Z,3.40
2019-06-20T03:56:01.709Z,3.50
2019-06-20T03:58:31.284Z,3.30
2019-06-20T04:01:00.933Z,3.17
2019-06-20T04:03:30.561Z,3.60
2019-06-20T04:06:00.272Z,3.67
2019-06-20T04:13:07.356Z,4.23
2019-06-20T04:19:13.079Z,3.90
2019-06-20T04:21:44.430Z,3.00
2019-06-20T04:24:14.028Z,3.30
2019-06-20T04:26:43.664Z,4.07
2019-06-20T04:29:13.354Z,3.67
2019-06-20T04:31:43.084Z,4.17
2019-06-20T04:34:12.757Z,4.00
2019-06-20T04:39:33.053Z,3.33
2019-06-20T04:45:35.497Z,3.77
2019-06-20T04:48:45.008Z,3.60
2019-06-20T04:51:37.044Z,3.77
2019-06-20T04:54:34.214Z,3.37
2019-06-20T04:57:19.564Z,3.47
2019-06-20T05:00:24.951Z,3.97
2019-06-20T05:03:11.654Z,3.43
2019-06-20T05:05:54.818Z,3.47
2019-06-20T05:08:35.663Z,3.40
2019-06-20T05:11:39.037Z,3.90
2019-06-20T05:14:14.617Z,3.80
2019-06-20T05:16:55.058Z,4.27
2019-06-20T05:22:19.573Z,4.77
2019-06-20T05:24:49.272Z,3.87
2019-06-20T05:27:19.020Z,3.50
2019-06-20T05:29:48.887Z,3.50
2019-06-20T05:32:18.594Z,3.47
2019-06-20T05:34:48.477Z,3.00
2019-06-20T05:37:21.746Z,2.70
2019-06-20T05:43:09.271Z,3.03
2019-06-20T05:46:11.238Z,3.00
2019-06-20T05:48:48.293Z,2.80
2019-06-20T05:51:18.072Z,2.67
2019-06-20T05:53:47.708Z,2.50
2019-06-20T05:56:17.365Z,2.63
2019-06-20T05:58:46.945Z,2.70
2019-06-20T06:01:31.422Z,2.40
2019-06-20T06:04:40.308Z,2.10
2019-06-20T06:07:14.154Z,1.97
2019-06-20T06:09:46.576Z,2.10
2019-06-20T06:12:16.430Z,2.57
2019-06-20T06:14:46.179Z,2.33
2019-06-20T06:17:16.197Z,2.33
2019-06-20T06:19:45.914Z,2.80
2019-06-20T06:25:22.491Z,2.93
2019-06-20T06:28:25.256Z,3.50
2019-06-20T06:31:11.243Z,3.40
2019-06-20T06:33:43.846Z,3.20
2019-06-20T06:36:19.387Z,3.40
2019-06-20T06:39:06.774Z,3.10
2019-06-20T06:41:37.678Z,2.57
2019-06-20T06:44:08.485Z,2.97
2019-06-20T06:46:44.885Z,3.50
2019-06-20T06:49:09.585Z,3.37
2019-06-20T06:51:39.184Z,3.10
2019-06-20T06:54:08.774Z,3.03
2019-06-20T06:56:38.513Z,2.93
2019-06-20T06:59:08.056Z,3.43
2019-06-20T07:01:37.588Z,3.17
2019-06-20T07:04:07.124Z,3.30
2019-06-20T07:06:36.662Z,3.50
2019-06-20T07:09:08.309Z,3.33
2019-06-20T07:11:37.999Z,3.77
2019-06-20T07:14:07.792Z,3.10
2019-06-20T07:16:37.326Z,3.20
2019-06-20T07:19:06.901Z,3.30
2019-06-20T07:21:36.541Z,3.77
2019-06-20T07:24:07.320Z,3.83
2019-06-20T07:26:36.929Z,3.27
2019-06-20T07:29:06.467Z,3.43
2019-06-20T07:31:36.061Z,3.60
2019-06-20T07:34:05.724Z,3.77
2019-06-20T07:36:36.321Z,3.13
2019-06-20T07:39:09.981Z,3.10
2019-06-20T07:41:41.325Z,3.07
2019-06-20T07:44:11.171Z,2.87
2019-06-20T07:46:43.612Z,2.97
2019-06-20T07:49:13.259Z,3.10
2019-06-20T07:51:42.838Z,3.10
2019-06-20T07:54:12.549Z,3.20
2019-06-20T07:56:43.508Z,2.90
2019-06-20T07:59:18.603Z,2.80
2019-06-20T08:01:51.410Z,2.90
2019-06-20T08:07:31.883Z,2.97
2019-06-20T08:10:04.394Z,3.10
2019-06-20T08:12:48.032Z,2.97
2019-06-20T08:15:20.260Z,3.37
2019-06-20T08:17:54.787Z,3.23
2019-06-20T08:20:25.472Z,3.07
2019-06-20T08:23:01.525Z,3.17
2019-06-20T08:30:00.987Z,3.53
2019-06-20T08:39:56.773Z,3.10
2019-06-20T08:46:13.310Z,4.87
2019-06-20T08:49:01.522Z,3.53
2019-06-20T08:51:37.749Z,3.23
2019-06-20T08:54:26.920Z,2.70
2019-06-20T08:57:33.453Z,2.60
2019-06-20T09:00:09.549Z,2.27
2019-06-20T09:03:00.464Z,2.57
2019-06-20T09:05:33.970Z,2.80
2019-06-20T09:08:39.940Z,3.77
2019-06-20T09:10:57.620Z,2.87
2019-06-20T09:13:28.293Z,3.13
2019-06-20T09:15:58.801Z,2.70
2019-06-20T09:18:28.641Z,2.80
2019-06-20T09:20:58.254Z,3.00
2019-06-20T09:23:27.948Z,3.50
2019-06-20T09:25:58.025Z,2.60
2019-06-20T09:28:38.110Z,2.90
2019-06-20T09:31:32.451Z,3.07
2019-06-20T09:34:05.793Z,2.70
2019-06-20T09:36:42.958Z,3.27
2019-06-20T09:39:13.062Z,2.73
2019-06-20T09:42:03.899Z,2.70
2019-06-20T09:44:40.114Z,3.20
2019-06-20T09:47:29.774Z,2.70
2019-06-20T09:50:01.095Z,2.80
2019-06-20T09:52:30.824Z,3.13
2019-06-20T09:55:00.419Z,3.87
2019-06-20T09:57:30.030Z,3.03
2019-06-20T10:00:09.714Z,2.80
2019-06-20T10:02:30.985Z,2.70
2019-06-20T10:05:00.595Z,2.87
2019-06-20T10:07:31.367Z,2.93
2019-06-20T10:10:02.411Z,2.80
2019-06-20T10:12:32.492Z,2.90
2019-06-20T10:15:05.189Z,2.90
2019-06-20T10:17:41.505Z,2.93
2019-06-20T10:20:13.094Z,2.70
2019-06-20T10:22:45.848Z,3.17
2019-06-20T10:25:17.257Z,2.87
2019-06-20T10:27:48.303Z,3.00
2019-06-20T10:30:19.407Z,2.77
2019-06-20T10:32:49.391Z,3.20
2019-06-20T10:35:19.733Z,3.10
2019-06-20T10:37:50.340Z,3.13
2019-06-20T10:40:20.698Z,3.00
2019-06-20T10:42:50.355Z,2.80
2019-06-20T10:45:21.043Z,3.00
2019-06-20T10:47:51.094Z,2.73
2019-06-20T10:50:21.661Z,2.90
2019-06-20T10:52:51.859Z,3.07
2019-06-20T10:55:21.718Z,3.27
2019-06-20T10:57:52.021Z,3.70
2019-06-20T11:00:31.278Z,3.53
2019-06-20T11:02:55.863Z,3.33
2019-06-20T11:05:27.281Z,3.40
2019-06-20T11:07:57.926Z,3.93
2019-06-20T11:10:28.299Z,3.63
2019-06-20T11:12:57.887Z,4.00
2019-06-20T11:15:29.187Z,3.43
2019-06-20T11:17:58.853Z,3.07
2019-06-20T11:20:28.414Z,2.67
2019-06-20T11:22:57.993Z,2.87
2019-06-20T11:25:27.693Z,2.90
2019-06-20T11:27:57.267Z,2.50
2019-06-20T11:30:28.763Z,2.53
2019-06-20T11:32:58.323Z,2.50
2019-06-20T11:35:27.921Z,2.43
2019-06-20T11:37:57.486Z,2.10
2019-06-20T11:40:27.429Z,2.20
2019-06-20T11:42:57.318Z,2.00
2019-06-20T11:45:27.070Z,2.33
2019-06-20T11:47:56.708Z,2.13
2019-06-20T11:50:26.447Z,2.10
2019-06-20T11:52:56.147Z,2.97
2019-06-20T11:55:25.821Z,2.10
2019-06-20T11:57:55.469Z,2.10
2019-06-20T12:00:26.282Z,2.23
2019-06-20T12:02:55.853Z,2.40
2019-06-20T12:05:25.535Z,2.00
2019-06-20T12:07:55.136Z,2.47
2019-06-20T12:10:25.439Z,2.53
2019-06-20T12:12:55.552Z,2.40
2019-06-20T12:15:25.166Z,2.37
2019-06-20T12:17:54.763Z,2.27
2019-06-20T12:20:24.560Z,2.07
2019-06-20T12:22:54.663Z,1.93
2019-06-20T12:25:24.437Z,1.60
2019-06-20T12:27:54.008Z,1.53
2019-06-20T12:30:24.161Z,1.80
2019-06-20T12:32:53.772Z,1.80
2019-06-20T12:35:23.353Z,1.77
2019-06-20T12:37:53.032Z,1.67
2019-06-20T12:40:23.171Z,2.30
2019-06-20T12:42:52.739Z,1.50
2019-06-20T12:45:22.562Z,1.27
2019-06-20T12:47:52.230Z,1.30
2019-06-20T12:50:21.989Z,1.63
2019-06-20T12:52:51.563Z,1.53
2019-06-20T12:55:21.332Z,1.50
2019-06-20T12:57:52.654Z,1.70
2019-06-20T13:00:23.252Z,1.50
2019-06-20T13:02:53.005Z,1.77
2019-06-20T13:05:24.683Z,1.73
2019-06-20T13:07:54.372Z,1.60
2019-06-20T13:10:24.649Z,1.77
2019-06-20T13:12:54.183Z,1.77
2019-06-20T13:15:23.902Z,1.60
2019-06-20T13:17:53.533Z,1.70
2019-06-20T13:20:23.450Z,2.87
2019-06-20T13:22:54.045Z,1.70
2019-06-20T13:25:23.789Z,1.73
2019-06-20T13:27:53.359Z,1.80
2019-06-20T13:30:22.980Z,1.90
2019-06-20T13:32:52.646Z,1.93
2019-06-20T13:35:22.479Z,1.77
2019-06-20T13:37:52.091Z,1.87
2019-06-20T13:40:21.964Z,2.37
2019-06-20T13:42:54.442Z,2.03
2019-06-20T13:45:23.820Z,1.90
2019-06-20T13:47:53.737Z,1.87
2019-06-20T13:50:24.516Z,2.63
2019-06-20T13:52:54.446Z,2.27
2019-06-20T13:55:24.349Z,1.77
2019-06-20T13:57:54.156Z,1.93
2019-06-20T14:00:24.676Z,2.33
2019-06-20T14:02:54.423Z,2.20
2019-06-20T14:05:24.164Z,2.10
2019-06-20T14:07:55.877Z,2.30
2019-06-20T14:10:25.229Z,1.90
2019-06-20T14:12:54.834Z,2.17
2019-06-20T14:15:24.649Z,2.00
2019-06-20T14:17:54.269Z,2.20
2019-06-20T14:20:25.504Z,2.17
2019-06-20T14:22:56.556Z,2.27
2019-06-20T14:25:26.342Z,2.53
2019-06-20T14:27:55.986Z,2.13
2019-06-20T14:30:26.141Z,2.57
2019-06-20T14:32:56.039Z,2.27
2019-06-20T14:35:25.904Z,2.60
2019-06-20T14:37:55.714Z,2.30
2019-06-20T14:40:25.606Z,2.50
2019-06-20T14:42:55.312Z,2.40
2019-06-20T14:45:25.215Z,2.60
2019-06-20T14:47:55.307Z,2.80
2019-06-20T14:50:25.156Z,2.70
2019-06-20T14:52:55.726Z,2.73
2019-06-20T14:55:26.000Z,2.80
2019-06-20T14:57:55.994Z,2.87
2019-06-20T15:00:27.394Z,2.77
2019-06-20T15:02:58.731Z,2.90
2019-06-20T15:05:30.451Z,2.87
2019-06-20T15:08:00.770Z,2.73
2019-06-20T15:10:30.492Z,2.57
2019-06-20T15:13:01.669Z,3.10
2019-06-20T15:15:31.712Z,2.63
2019-06-20T15:18:01.375Z,2.67
2019-06-20T15:20:30.984Z,2.90
2019-06-20T15:23:00.757Z,2.80
2019-06-20T15:25:30.458Z,2.47
2019-06-20T15:28:00.153Z,2.47
2019-06-20T15:30:29.716Z,2.50
2019-06-20T15:33:09.705Z,2.30
2019-06-20T15:35:30.602Z,2.30
2019-06-20T15:38:00.268Z,2.00
2019-06-20T15:40:29.882Z,2.27
2019-06-20T15:42:59.449Z,2.00
2019-06-20T15:45:29.045Z,2.20
2019-06-20T15:47:58.651Z,2.00
2019-06-20T15:50:28.237Z,2.17
2019-06-20T15:52:57.885Z,2.10
2019-06-20T15:55:27.500Z,1.90
2019-06-20T15:57:57.131Z,1.90
2019-06-20T16:00:26.770Z,2.13
2019-06-20T16:03:08.789Z,1.65
2019-06-20T16:05:27.662Z,1.90
2019-06-20T16:07:57.337Z,2.15
2019-06-20T16:10:26.914Z,2.50
2019-06-20T16:12:56.546Z,2.00
2019-06-20T16:15:26.163Z,1.80
2019-06-20T16:17:55.794Z,1.83
2019-06-20T16:20:25.389Z,1.93
2019-06-20T16:22:54.974Z,2.00
2019-06-20T16:25:24.558Z,2.10
2019-06-20T16:27:54.132Z,2.23
2019-06-20T16:30:23.860Z,2.30
2019-06-20T16:32:53.605Z,2.07
2019-06-20T16:35:24.181Z,2.30
2019-06-20T16:37:53.804Z,2.03
2019-06-20T16:40:39.955Z,1.97
2019-06-20T16:43:09.729Z,2.20
2019-06-20T16:45:41.206Z,2.03
2019-06-20T16:48:12.008Z,1.87
2019-06-20T16:50:41.958Z,2.20
2019-06-20T16:53:11.614Z,1.90
2019-06-20T16:55:41.226Z,1.87
2019-06-20T16:58:10.808Z,2.20
2019-06-20T17:00:40.606Z,2.00
2019-06-20T17:03:10.219Z,2.10
2019-06-20T17:05:41.178Z,2.30
2019-06-20T17:08:10.861Z,2.07
2019-06-20T17:10:40.678Z,2.03
2019-06-20T17:13:10.285Z,2.50
2019-06-20T17:15:39.922Z,2.57
2019-06-20T17:18:09.447Z,1.97
2019-06-20T17:20:39.081Z,2.20
2019-06-20T17:23:09.585Z,2.00
2019-06-20T17:25:40.360Z,2.10
2019-06-20T17:28:10.169Z,2.23
2019-06-20T17:30:39.939Z,2.20
2019-06-20T17:33:28.492Z,2.13
2019-06-20T17:36:29.714Z,2.40
2019-06-20T17:38:59.995Z,1.93
2019-06-20T17:41:25.030Z,1.63
2019-06-20T17:50:13.511Z,2.00
2019-06-20T17:52:54.920Z,1.90
2019-06-20T17:55:29.059Z,2.27
2019-06-20T18:02:42.406Z,2.10
2019-06-20T18:05:25.659Z,2.30
2019-06-20T18:08:14.702Z,2.10
2019-06-20T18:10:33.629Z,2.50
2019-06-20T18:13:24.855Z,2.23
2019-06-20T18:15:53.172Z,2.07
2019-06-20T18:18:29.531Z,2.20
2019-06-20T18:21:03.328Z,2.07
2019-06-20T18:24:09.805Z,2.40
2019-06-20T18:27:08.767Z,2.57
2019-06-20T18:30:19.421Z,1.90
2019-06-20T18:36:13.703Z,1.93
2019-06-20T18:38:54.300Z,2.07
2019-06-20T18:42:51.696Z,2.70
2019-06-20T18:44:37.621Z,2.60
2019-06-20T18:47:36.099Z,2.73
2019-06-20T18:50:06.224Z,2.30
2019-06-20T18:52:52.173Z,2.53
2019-06-20T18:55:23.276Z,2.50
2019-06-20T18:57:59.582Z,2.57
2019-06-20T19:00:35.039Z,2.63
2019-06-20T19:03:11.582Z,2.33
2019-06-20T19:05:41.364Z,3.33
2019-06-20T19:08:13.804Z,2.40
2019-06-20T19:10:45.564Z,2.47
2019-06-20T19:13:15.528Z,2.40
2019-06-20T19:15:53.989Z,2.90
2019-06-20T19:18:25.318Z,2.47
2019-06-20T19:21:03.949Z,3.30
2019-06-20T19:23:38.348Z,2.50
2019-06-20T19:26:08.149Z,4.20
2019-06-20T19:28:37.930Z,2.50
2019-06-20T19:31:08.043Z,2.43
2019-06-20T19:33:37.838Z,3.00
2019-06-20T19:36:07.512Z,3.30
2019-06-20T19:38:37.101Z,3.27
2019-06-20T19:41:06.658Z,3.90
2019-06-20T19:43:36.199Z,3.97
2019-06-20T19:46:06.012Z,3.87
2019-06-20T19:48:36.887Z,3.80
2019-06-20T19:51:06.834Z,3.10
2019-06-20T19:53:36.593Z,3.80
2019-06-20T19:56:06.301Z,4.00
2019-06-20T19:58:35.967Z,5.60
2019-06-20T20:01:05.725Z,6.63
2019-06-20T20:03:35.385Z,6.20
2019-06-20T20:06:05.254Z,5.47
2019-06-20T20:08:35.123Z,6.20
2019-06-20T20:11:04.753Z,6.20
2019-06-20T20:13:34.451Z,6.83
2019-06-20T20:16:04.197Z,5.83
2019-06-20T20:18:33.930Z,6.43
2019-06-20T20:21:03.622Z,6.37
2019-06-20T20:23:33.514Z,7.70
2019-06-20T20:26:03.554Z,8.20
2019-06-20T20:28:33.427Z,7.77
2019-06-20T20:31:03.378Z,6.60
2019-06-20T20:33:33.341Z,6.83
2019-06-20T20:36:03.322Z,7.03
2019-06-20T20:38:33.262Z,6.87
2019-06-20T20:41:03.097Z,6.93
2019-06-20T20:43:32.861Z,6.97
2019-06-20T20:46:02.821Z,7.47
2019-06-20T20:48:33.114Z,6.60
2019-06-20T20:51:02.969Z,6.37
2019-06-20T20:53:33.094Z,7.57
2019-06-20T20:56:02.918Z,7.70
2019-06-20T20:58:32.833Z,9.07
2019-06-20T21:01:15.621Z,7.97
2019-06-20T21:03:45.562Z,8.00
2019-06-20T21:06:15.340Z,8.00
2019-06-20T21:08:45.043Z,8.00
2019-06-20T21:11:14.932Z,8.33
2019-06-20T21:13:44.801Z,9.37
2019-06-20T21:16:14.642Z,8.47
2019-06-20T21:18:45.556Z,9.07
2019-06-20T21:21:15.529Z,7.97
2019-06-20T21:23:45.479Z,8.00
2019-06-20T21:26:15.600Z,7.90
2019-06-20T21:28:45.649Z,8.33
2019-06-20T21:31:15.706Z,9.33
2019-06-20T21:33:45.599Z,8.60
2019-06-20T21:36:15.484Z,8.57
2019-06-20T21:38:46.269Z,8.40
2019-06-20T21:41:16.201Z,7.23
2019-06-20T21:43:45.833Z,7.47
2019-06-20T21:46:15.385Z,7.27
2019-06-20T21:48:45.941Z,8.40
2019-06-20T21:51:15.508Z,8.33
2019-06-20T21:53:45.180Z,7.70
2019-06-20T21:56:14.697Z,8.57
2019-06-20T21:58:44.296Z,8.97
2019-06-20T22:01:14.653Z,8.53
2019-06-20T22:03:44.749Z,9.13
2019-06-20T22:06:23.197Z,8.60
2019-06-20T22:08:45.543Z,8.80
2019-06-20T22:11:15.159Z,8.83
2019-06-20T22:13:46.617Z,8.63
2019-06-20T22:16:16.235Z,8.93
2019-06-20T22:18:45.960Z,8.63
2019-06-20T22:21:15.514Z,9.33
2019-06-20T22:23:45.089Z,9.97
2019-06-20T22:26:14.645Z,8.83
2019-06-20T22:28:44.184Z,9.87
2019-06-20T22:31:13.745Z,9.43
2019-06-20T22:33:43.389Z,9.67
2019-06-20T22:36:13.013Z,8.93
2019-06-20T22:38:42.569Z,8.97
2019-06-20T22:41:12.133Z,10.43
2019-06-20T22:43:41.735Z,10.17
2019-06-20T22:46:11.313Z,9.70
2019-06-20T22:48:41.119Z,10.20
2019-06-20T22:51:13.687Z,8.77
2019-06-20T22:53:41.996Z,9.43
2019-06-20T22:56:11.641Z,10.53
2019-06-20T22:58:41.249Z,9.80
2019-06-20T23:01:10.830Z,9.83
2019-06-20T23:03:40.372Z,10.47
2019-06-20T23:06:09.946Z,9.23
2019-06-20T23:08:39.517Z,9.10
2019-06-20T23:11:09.098Z,9.50
2019-06-20T23:13:38.670Z,9.40
2019-06-20T23:16:08.316Z,9.80
2019-06-20T23:18:37.982Z,9.20
2019-06-20T23:21:07.526Z,9.00
2019-06-20T23:23:37.098Z,10.67
2019-06-20T23:26:08.462Z,11.57
2019-06-20T23:28:38.089Z,10.80
2019-06-20T23:31:07.664Z,10.07
2019-06-20T23:33:37.332Z,11.67
2019-06-20T23:36:06.975Z,10.30
2019-06-20T23:38:36.516Z,10.03
2019-06-20T23:41:06.216Z,9.50
2019-06-20T23:43:35.786Z,9.67
2019-06-20T23:46:06.318Z,10.63
2019-06-20T23:48:35.901Z,10.87
2019-06-20T23:51:05.443Z,12.20
2019-06-20T23:53:35.023Z,10.57
2019-06-20T23:56:07.914Z,10.80
2019-06-20T23:58:35.949Z,9.60
